sensor_id;sensor_type;location;lat;lon;timestamp;pressure;altitude;pressure_sealevel;temperature;humidity
77877;BME280;67251;50.844;7.978;2024-02-28T00:00:22;99057.66;;;-3.69;100.00
77877;BME280;67251;50.844;7.978;2024-02-28T00:02:47;99061.22;;;-3.70;100.00
77877;BME280;67251;50.844;7.978;2024-02-28T00:05:12;99057.28;;;-3.76;100.00
77877;BME280;67251;50.844;7.978;2024-02-28T00:07:38;99060.16;;;-3.68;100.00
77877;BME280;67251;50.844;7.978;2024-02-28T00:10:03;99074.38;;;-3.46;100.00
77877;BME280;67251;50.844;7.978;2024-02-28T00:12:29;99080.06;;;-3.16;100.00
77877;BME280;67251;50.844;7.978;2024-02-28T00:14:54;99075.59;;;-2.90;100.00
77877;BME280;67251;50.844;7.978;2024-02-28T00:17:20;99086.53;;;-2.72;100.00
77877;BME280;67251;50.844;7.978;2024-02-28T00:19:45;99093.97;;;-2.54;100.00
77877;BME280;67251;50.844;7.978;2024-02-28T00:22:10;99084.16;;;-2.40;100.00
77877;BME280;67251;50.844;7.978;2024-02-28T00:24:36;99082.63;;;-2.31;100.00
77877;BME280;67251;50.844;7.978;2024-02-28T00:27:01;99090.28;;;-2.17;100.00
77877;BME280;67251;50.844;7.978;2024-02-28T00:29:26;99098.09;;;-2.04;100.00
77877;BME280;67251;50.844;7.978;2024-02-28T00:31:52;99087.03;;;-1.96;100.00
77877;BME280;67251;50.844;7.978;2024-02-28T00:34:18;99089.31;;;-1.92;100.00
77877;BME280;67251;50.844;7.978;2024-02-28T00:36:43;99092.06;;;-1.82;100.00
77877;BME280;67251;50.844;7.978;2024-02-28T00:39:09;99088.63;;;-1.71;100.00
77877;BME280;67251;50.844;7.978;2024-02-28T00:41:35;99095.06;;;-1.64;100.00
77877;BME280;67251;50.844;7.978;2024-02-28T00:44:00;99097.09;;;-1.57;100.00
77877;BME280;67251;50.844;7.978;2024-02-28T00:46:25;99094.38;;;-1.55;100.00
77877;BME280;67251;50.844;7.978;2024-02-28T00:48:51;99107.84;;;-1.48;100.00
77877;BME280;67251;50.844;7.978;2024-02-28T00:51:16;99097.59;;;-1.40;100.00
77877;BME280;67251;50.844;7.978;2024-02-28T00:53:41;99097.22;;;-1.36;100.00
77877;BME280;67251;50.844;7.978;2024-02-28T00:56:08;99090.06;;;-1.34;100.00
77877;BME280;67251;50.844;7.978;2024-02-28T00:58:33;99090.66;;;-1.30;100.00
77877;BME280;67251;50.844;7.978;2024-02-28T01:00:59;99080.75;;;-1.26;100.00
77877;BME280;67251;50.844;7.978;2024-02-28T01:03:24;99083.72;;;-1.20;100.00
77877;BME280;67251;50.844;7.978;2024-02-28T01:05:50;99090.41;;;-1.16;100.00
77877;BME280;67251;50.844;7.978;2024-02-28T01:08:16;99097.09;;;-1.12;100.00
77877;BME280;67251;50.844;7.978;2024-02-28T01:10:45;99101.16;;;-1.08;100.00
77877;BME280;67251;50.844;7.978;2024-02-28T01:13:11;99099.94;;;-1.04;100.00
77877;BME280;67251;50.844;7.978;2024-02-28T01:15:39;99104.13;;;-1.01;100.00
77877;BME280;67251;50.844;7.978;2024-02-28T01:18:05;99104.94;;;-1.00;100.00
77877;BME280;67251;50.844;7.978;2024-02-28T01:20:31;99109.25;;;-0.99;100.00
77877;BME280;67251;50.844;7.978;2024-02-28T01:22:56;99101.63;;;-1.02;100.00
77877;BME280;67251;50.844;7.978;2024-02-28T01:25:21;99108.78;;;-1.05;100.00
77877;BME280;67251;50.844;7.978;2024-02-28T01:27:46;99113.19;;;-1.05;100.00
77877;BME280;67251;50.844;7.978;2024-02-28T01:30:12;99106.16;;;-1.05;100.00
77877;BME280;67251;50.844;7.978;2024-02-28T01:32:37;99110.44;;;-1.04;100.00
77877;BME280;67251;50.844;7.978;2024-02-28T01:35:03;99108.66;;;-1.03;100.00
77877;BME280;67251;50.844;7.978;2024-02-28T01:37:29;99109.25;;;-0.99;100.00
77877;BME280;67251;50.844;7.978;2024-02-28T01:42:30;99116.75;;;-0.95;100.00
77877;BME280;67251;50.844;7.978;2024-02-28T01:44:55;99106.97;;;-0.93;100.00
77877;BME280;67251;50.844;7.978;2024-02-28T01:47:20;99103.25;;;-0.90;100.00
77877;BME280;67251;50.844;7.978;2024-02-28T01:49:46;99101.22;;;-0.87;100.00
77877;BME280;67251;50.844;7.978;2024-02-28T01:52:12;99100.41;;;-0.87;100.00
77877;BME280;67251;50.844;7.978;2024-02-28T01:54:38;99106.97;;;-0.93;100.00
77877;BME280;67251;50.844;7.978;2024-02-28T01:57:05;99107.34;;;-0.97;100.00
77877;BME280;67251;50.844;7.978;2024-02-28T01:59:31;99110.44;;;-1.04;100.00
77877;BME280;67251;50.844;7.978;2024-02-28T02:01:57;99115.13;;;-1.07;100.00
77877;BME280;67251;50.844;7.978;2024-02-28T02:04:22;99122.41;;;-1.11;100.00
77877;BME280;67251;50.844;7.978;2024-02-28T02:06:48;99120.97;;;-1.15;100.00
77877;BME280;67251;50.844;7.978;2024-02-28T02:09:15;99115.00;;;-1.17;100.00
77877;BME280;67251;50.844;7.978;2024-02-28T02:11:40;99118.56;;;-1.18;100.00
77877;BME280;67251;50.844;7.978;2024-02-28T02:14:06;99119.53;;;-1.19;100.00
77877;BME280;67251;50.844;7.978;2024-02-28T02:16:31;99115.22;;;-1.20;100.00
77877;BME280;67251;50.844;7.978;2024-02-28T02:18:57;99129.31;;;-1.21;100.00
77877;BME280;67251;50.844;7.978;2024-02-28T02:21:34;99123.59;;;-1.26;100.00
77877;BME280;67251;50.844;7.978;2024-02-28T02:24:02;99115.00;;;-1.28;100.00
77877;BME280;67251;50.844;7.978;2024-02-28T02:26:28;99111.53;;;-1.29;100.00
77877;BME280;67251;50.844;7.978;2024-02-28T02:28:53;99116.69;;;-1.27;100.00
77877;BME280;67251;50.844;7.978;2024-02-28T02:31:19;99117.38;;;-1.25;100.00
77877;BME280;67251;50.844;7.978;2024-02-28T02:33:44;99128.50;;;-1.21;100.00
77877;BME280;67251;50.844;7.978;2024-02-28T02:36:09;99130.28;;;-1.22;100.00
77877;BME280;67251;50.844;7.978;2024-02-28T02:38:35;99126.78;;;-1.22;100.00
77877;BME280;67251;50.844;7.978;2024-02-28T02:41:00;99108.56;;;-1.24;100.00
77877;BME280;67251;50.844;7.978;2024-02-28T02:43:26;99106.66;;;-1.22;100.00
77877;BME280;67251;50.844;7.978;2024-02-28T02:45:51;99110.81;;;-1.19;100.00
77877;BME280;67251;50.844;7.978;2024-02-28T02:48:16;99118.47;;;-1.16;100.00
77877;BME280;67251;50.844;7.978;2024-02-28T02:50:42;99112.13;;;-1.14;100.00
77877;BME280;67251;50.844;7.978;2024-02-28T02:53:09;99119.75;;;-1.11;100.00
77877;BME280;67251;50.844;7.978;2024-02-28T02:55:35;99126.69;;;-1.10;100.00
77877;BME280;67251;50.844;7.978;2024-02-28T02:58:01;99120.47;;;-1.09;100.00
77877;BME280;67251;50.844;7.978;2024-02-28T03:00:27;99123.09;;;-1.09;100.00
77877;BME280;67251;50.844;7.978;2024-02-28T03:02:53;99122.41;;;-1.11;100.00
77877;BME280;67251;50.844;7.978;2024-02-28T03:05:18;99115.47;;;-1.12;100.00
77877;BME280;67251;50.844;7.978;2024-02-28T03:07:44;99118.81;;;-1.10;100.00
77877;BME280;67251;50.844;7.978;2024-02-28T03:10:09;99122.16;;;-1.08;100.00
77877;BME280;67251;50.844;7.978;2024-02-28T03:12:35;99128.13;;;-1.06;100.00
77877;BME280;67251;50.844;7.978;2024-02-28T03:15:01;99131.44;;;-1.04;100.00
77877;BME280;67251;50.844;7.978;2024-02-28T03:17:26;99127.75;;;-1.01;100.00
77877;BME280;67251;50.844;7.978;2024-02-28T03:19:51;99130.38;;;-1.01;100.00
77877;BME280;67251;50.844;7.978;2024-02-28T03:22:17;99126.09;;;-1.02;100.00
77877;BME280;67251;50.844;7.978;2024-02-28T03:24:42;99117.63;;;-1.06;100.00
77877;BME280;67251;50.844;7.978;2024-02-28T03:27:07;99116.91;;;-1.08;100.00
77877;BME280;67251;50.844;7.978;2024-02-28T03:29:33;99126.47;;;-1.07;100.00
77877;BME280;67251;50.844;7.978;2024-02-28T03:31:59;99126.19;;;-1.04;100.00
77877;BME280;67251;50.844;7.978;2024-02-28T03:34:24;99125.97;;;-1.00;100.00
77877;BME280;67251;50.844;7.978;2024-02-28T03:36:50;99128.34;;;-0.97;100.00
77877;BME280;67251;50.844;7.978;2024-02-28T03:39:16;99129.06;;;-0.95;100.00
77877;BME280;67251;50.844;7.978;2024-02-28T03:41:42;99137.78;;;-0.95;100.00
77877;BME280;67251;50.844;7.978;2024-02-28T03:44:07;99140.41;;;-0.95;100.00
77877;BME280;67251;50.844;7.978;2024-02-28T03:46:33;99144.81;;;-0.95;100.00
77877;BME280;67251;50.844;7.978;2024-02-28T03:48:58;99142.31;;;-0.97;100.00
77877;BME280;67251;50.844;7.978;2024-02-28T03:51:23;99145.66;;;-0.95;100.00
77877;BME280;67251;50.844;7.978;2024-02-28T03:53:49;99146.75;;;-0.97;100.00
77877;BME280;67251;50.844;7.978;2024-02-28T03:56:22;99154.63;;;-0.97;100.00
77877;BME280;67251;50.844;7.978;2024-02-28T03:58:49;99153.78;;;-0.98;100.00
77877;BME280;67251;50.844;7.978;2024-02-28T04:01:14;99159.88;;;-0.97;100.00
77877;BME280;67251;50.844;7.978;2024-02-28T04:03:39;99154.50;;;-0.96;100.00
77877;BME280;67251;50.844;7.978;2024-02-28T04:06:05;99147.34;;;-0.94;100.00
77877;BME280;67251;50.844;7.978;2024-02-28T04:08:30;99148.88;;;-0.91;100.00
77877;BME280;67251;50.844;7.978;2024-02-28T04:10:55;99161.03;;;-0.90;100.00
77877;BME280;67251;50.844;7.978;2024-02-28T04:13:21;99166.19;;;-0.89;100.00
77877;BME280;67251;50.844;7.978;2024-02-28T04:15:46;99167.03;;;-0.88;100.00
77877;BME280;67251;50.844;7.978;2024-02-28T04:18:11;99173.13;;;-0.88;100.00
77877;BME280;67251;50.844;7.978;2024-02-28T04:20:37;99179.81;;;-0.84;100.00
77877;BME280;67251;50.844;7.978;2024-02-28T04:23:03;99176.22;;;-0.83;100.00
77877;BME280;67251;50.844;7.978;2024-02-28T04:25:29;99176.09;;;-0.81;100.00
77877;BME280;67251;50.844;7.978;2024-02-28T04:27:54;99175.50;;;-0.85;100.00
77877;BME280;67251;50.844;7.978;2024-02-28T04:30:20;99184.47;;;-0.87;100.00
77877;BME280;67251;50.844;7.978;2024-02-28T04:32:45;99182.78;;;-0.88;100.00
77877;BME280;67251;50.844;7.978;2024-02-28T04:35:10;99188.16;;;-0.90;100.00
77877;BME280;67251;50.844;7.978;2024-02-28T04:37:35;99190.19;;;-0.93;100.00
77877;BME280;67251;50.844;7.978;2024-02-28T04:40:02;99189.59;;;-0.97;100.00
77877;BME280;67251;50.844;7.978;2024-02-28T04:42:28;99195.06;;;-1.00;100.00
77877;BME280;67251;50.844;7.978;2024-02-28T04:44:53;99193.53;;;-1.02;100.00
77877;BME280;67251;50.844;7.978;2024-02-28T04:47:18;99201.53;;;-1.04;100.00
77877;BME280;67251;50.844;7.978;2024-02-28T04:49:44;99198.19;;;-1.06;100.00
77877;BME280;67251;50.844;7.978;2024-02-28T04:52:09;99196.63;;;-1.09;100.00
77877;BME280;67251;50.844;7.978;2024-02-28T04:54:34;99203.09;;;-1.13;100.00
77877;BME280;67251;50.844;7.978;2024-02-28T04:57:00;99201.28;;;-1.12;100.00
77877;BME280;67251;50.844;7.978;2024-02-28T04:59:26;99198.53;;;-1.11;100.00
77877;BME280;67251;50.844;7.978;2024-02-28T05:01:51;99198.31;;;-1.08;100.00
77877;BME280;67251;50.844;7.978;2024-02-28T05:04:17;99206.91;;;-1.06;100.00
77877;BME280;67251;50.844;7.978;2024-02-28T05:06:42;99207.59;;;-1.04;100.00
77877;BME280;67251;50.844;7.978;2024-02-28T05:09:07;99214.66;;;-1.04;100.00
77877;BME280;67251;50.844;7.978;2024-02-28T05:11:34;99215.38;;;-1.02;100.00
77877;BME280;67251;50.844;7.978;2024-02-28T05:13:59;99228.25;;;-0.99;100.00
77877;BME280;67251;50.844;7.978;2024-02-28T05:16:25;99219.44;;;-0.98;100.00
77877;BME280;67251;50.844;7.978;2024-02-28T05:18:50;99228.88;;;-0.95;100.00
77877;BME280;67251;50.844;7.978;2024-02-28T05:21:15;99226.97;;;-0.93;100.00
77877;BME280;67251;50.844;7.978;2024-02-28T05:23:41;99211.22;;;-0.93;100.00
77877;BME280;67251;50.844;7.978;2024-02-28T05:26:06;99213.84;;;-0.93;100.00
77877;BME280;67251;50.844;7.978;2024-02-28T05:28:35;99212.16;;;-0.94;100.00
77877;BME280;67251;50.844;7.978;2024-02-28T05:31:03;99218.00;;;-0.91;100.00
77877;BME280;67251;50.844;7.978;2024-02-28T05:33:44;99223.16;;;-0.89;100.00
77877;BME280;67251;50.844;7.978;2024-02-28T05:36:09;99212.75;;;-0.91;100.00
77877;BME280;67251;50.844;7.978;2024-02-28T05:38:34;99226.72;;;-0.90;100.00
77877;BME280;67251;50.844;7.978;2024-02-28T05:41:00;99227.53;;;-0.90;100.00
77877;BME280;67251;50.844;7.978;2024-02-28T05:43:25;99236.53;;;-0.92;100.00
77877;BME280;67251;50.844;7.978;2024-02-28T05:45:52;99242.97;;;-0.96;100.00
77877;BME280;67251;50.844;7.978;2024-02-28T05:48:17;99244.75;;;-0.97;100.00
77877;BME280;67251;50.844;7.978;2024-02-28T05:50:43;99250.97;;;-0.98;100.00
77877;BME280;67251;50.844;7.978;2024-02-28T05:53:09;99251.41;;;-1.04;100.00
77877;BME280;67251;50.844;7.978;2024-02-28T05:55:34;99247.25;;;-1.07;100.00
77877;BME280;67251;50.844;7.978;2024-02-28T05:57:59;99244.25;;;-1.13;100.00
77877;BME280;67251;50.844;7.978;2024-02-28T06:00:26;99251.28;;;-1.14;100.00
77877;BME280;67251;50.844;7.978;2024-02-28T06:02:53;99246.88;;;-1.13;100.00
77877;BME280;67251;50.844;7.978;2024-02-28T06:05:19;99258.09;;;-1.11;100.00
77877;BME280;67251;50.844;7.978;2024-02-28T06:07:44;99267.66;;;-1.10;100.00
77877;BME280;67251;50.844;7.978;2024-02-28T06:10:09;99262.53;;;-1.12;100.00
77877;BME280;67251;50.844;7.978;2024-02-28T06:12:36;99266.59;;;-1.08;100.00
77877;BME280;67251;50.844;7.978;2024-02-28T06:15:01;99270.41;;;-1.12;100.00
77877;BME280;67251;50.844;7.978;2024-02-28T06:17:26;99273.25;;;-1.15;100.00
77877;BME280;67251;50.844;7.978;2024-02-28T06:19:52;99274.22;;;-1.16;100.00
77877;BME280;67251;50.844;7.978;2024-02-28T06:22:17;99282.78;;;-1.14;100.00
77877;BME280;67251;50.844;7.978;2024-02-28T06:24:45;99286.38;;;-1.15;100.00
77877;BME280;67251;50.844;7.978;2024-02-28T06:27:10;99288.19;;;-1.15;100.00
77877;BME280;67251;50.844;7.978;2024-02-28T06:29:38;99288.03;;;-1.14;100.00
77877;BME280;67251;50.844;7.978;2024-02-28T06:32:03;99288.03;;;-1.14;100.00
77877;BME280;67251;50.844;7.978;2024-02-28T06:34:29;99292.25;;;-1.11;100.00
77877;BME280;67251;50.844;7.978;2024-02-28T06:36:54;99293.06;;;-1.11;100.00
77877;BME280;67251;50.844;7.978;2024-02-28T06:39:20;99300.25;;;-1.13;100.00
77877;BME280;67251;50.844;7.978;2024-02-28T06:41:45;99295.00;;;-1.13;100.00
77877;BME280;67251;50.844;7.978;2024-02-28T06:44:10;99305.25;;;-1.10;100.00
77877;BME280;67251;50.844;7.978;2024-02-28T06:46:36;99302.53;;;-1.08;100.00
77877;BME280;67251;50.844;7.978;2024-02-28T06:49:02;99309.44;;;-1.07;100.00
77877;BME280;67251;50.844;7.978;2024-02-28T06:51:27;99311.13;;;-1.06;100.00
77877;BME280;67251;50.844;7.978;2024-02-28T06:53:53;99314.44;;;-1.04;100.00
77877;BME280;67251;50.844;7.978;2024-02-28T06:56:18;99316.25;;;-1.05;100.00
77877;BME280;67251;50.844;7.978;2024-02-28T06:58:43;99314.44;;;-1.04;100.00
77877;BME280;67251;50.844;7.978;2024-02-28T07:01:09;99317.47;;;-0.97;100.00
77877;BME280;67251;50.844;7.978;2024-02-28T07:03:34;99311.97;;;-0.94;100.00
77877;BME280;67251;50.844;7.978;2024-02-28T07:06:00;99324.03;;;-0.92;100.00
77877;BME280;67251;50.844;7.978;2024-02-28T07:08:25;99322.97;;;-0.89;100.00
77877;BME280;67251;50.844;7.978;2024-02-28T07:10:50;99320.09;;;-0.86;100.00
77877;BME280;67251;50.844;7.978;2024-02-28T07:13:19;99317.47;;;-0.86;100.00
77877;BME280;67251;50.844;7.978;2024-02-28T07:15:45;99321.88;;;-0.87;100.00
77877;BME280;67251;50.844;7.978;2024-02-28T07:18:11;99327.03;;;-0.85;100.00
77877;BME280;67251;50.844;7.978;2024-02-28T07:20:36;99317.25;;;-0.83;100.00
77877;BME280;67251;50.844;7.978;2024-02-28T07:23:01;99323.22;;;-0.81;100.00
77877;BME280;67251;50.844;7.978;2024-02-28T07:25:27;99323.34;;;-0.83;100.00
77877;BME280;67251;50.844;7.978;2024-02-28T07:27:52;99328.38;;;-0.80;100.00
77877;BME280;67251;50.844;7.978;2024-02-28T07:30:18;99319.75;;;-0.82;100.00
77877;BME280;67251;50.844;7.978;2024-02-28T07:32:43;99326.31;;;-0.76;100.00
77877;BME280;67251;50.844;7.978;2024-02-28T07:35:08;99328.84;;;-0.63;100.00
77877;BME280;67251;50.844;7.978;2024-02-28T07:37:34;99316.78;;;-0.55;100.00
77877;BME280;67251;50.844;7.978;2024-02-28T07:39:59;99327.06;;;-0.52;100.00
77877;BME280;67251;50.844;7.978;2024-02-28T07:42:25;99325.16;;;-0.49;100.00
77877;BME280;67251;50.844;7.978;2024-02-28T07:44:50;99332.34;;;-0.52;100.00
77877;BME280;67251;50.844;7.978;2024-02-28T07:47:19;99338.06;;;-0.46;100.00
77877;BME280;67251;50.844;7.978;2024-02-28T07:49:44;99335.66;;;-0.38;100.00
77877;BME280;67251;50.844;7.978;2024-02-28T07:52:10;99350.50;;;-0.37;100.00
77877;BME280;67251;50.844;7.978;2024-02-28T07:54:35;99339.25;;;-0.28;100.00
77877;BME280;67251;50.844;7.978;2024-02-28T07:57:02;99342.00;;;-0.18;100.00
77877;BME280;67251;50.844;7.978;2024-02-28T07:59:27;99345.44;;;-0.07;100.00
77877;BME280;67251;50.844;7.978;2024-02-28T08:01:52;99347.59;;;-0.01;100.00
77877;BME280;67251;50.844;7.978;2024-02-28T08:04:18;99362.91;;;0.06;100.00
77877;BME280;67251;50.844;7.978;2024-02-28T08:06:43;99367.66;;;0.12;100.00
77877;BME280;67251;50.844;7.978;2024-02-28T08:09:08;99374.97;;;0.19;100.00
77877;BME280;67251;50.844;7.978;2024-02-28T08:11:34;99378.44;;;0.20;100.00
77877;BME280;67251;50.844;7.978;2024-02-28T08:13:59;99376.75;;;0.08;100.00
77877;BME280;67251;50.844;7.978;2024-02-28T08:16:25;99376.16;;;0.04;100.00
77877;BME280;67251;50.844;7.978;2024-02-28T08:18:50;99376.28;;;0.03;100.00
77877;BME280;67251;50.844;7.978;2024-02-28T08:21:15;99376.41;;;0.12;100.00
77877;BME280;67251;50.844;7.978;2024-02-28T08:23:41;99381.41;;;0.27;100.00
77877;BME280;67251;50.844;7.978;2024-02-28T08:26:06;99381.50;;;0.36;100.00
77877;BME280;67251;50.844;7.978;2024-02-28T08:28:31;99376.97;;;0.38;100.00
77877;BME280;67251;50.844;7.978;2024-02-28T08:30:58;99373.09;;;0.42;100.00
77877;BME280;67251;50.844;7.978;2024-02-28T08:33:23;99381.50;;;0.36;100.00
77877;BME280;67251;50.844;7.978;2024-02-28T08:35:48;99378.84;;;0.47;100.00
77877;BME280;67251;50.844;7.978;2024-02-28T08:38:15;99375.47;;;0.57;100.00
77877;BME280;67251;50.844;7.978;2024-02-28T08:40:41;99383.56;;;0.65;100.00
77877;BME280;67251;50.844;7.978;2024-02-28T08:43:06;99374.91;;;0.74;100.00
77877;BME280;67251;50.844;7.978;2024-02-28T08:45:31;99377.34;;;0.66;100.00
77877;BME280;67251;50.844;7.978;2024-02-28T08:47:57;99377.34;;;0.66;100.00
77877;BME280;67251;50.844;7.978;2024-02-28T08:50:26;99383.41;;;0.77;100.00
77877;BME280;67251;50.844;7.978;2024-02-28T08:52:51;99385.06;;;0.90;100.00
77877;BME280;67251;50.844;7.978;2024-02-28T08:55:17;99392.38;;;0.86;100.00
77877;BME280;67251;50.844;7.978;2024-02-28T08:57:44;99395.97;;;0.85;100.00
77877;BME280;67251;50.844;7.978;2024-02-28T09:00:10;99395.91;;;0.96;100.00
77877;BME280;67251;50.844;7.978;2024-02-28T09:02:35;99389.88;;;1.06;100.00
77877;BME280;67251;50.844;7.978;2024-02-28T09:05:02;99387.03;;;0.97;100.00
77877;BME280;67251;50.844;7.978;2024-02-28T09:07:28;99390.78;;;1.16;100.00
77877;BME280;67251;50.844;7.978;2024-02-28T09:09:54;99389.63;;;1.30;100.00
77877;BME280;67251;50.844;7.978;2024-02-28T09:12:19;99393.50;;;1.46;100.00
77877;BME280;67251;50.844;7.978;2024-02-28T09:14:44;99401.31;;;1.58;100.00
77877;BME280;67251;50.844;7.978;2024-02-28T09:17:11;99398.25;;;1.52;98.83
77877;BME280;67251;50.844;7.978;2024-02-28T09:19:36;99401.22;;;1.69;97.81
77877;BME280;67251;50.844;7.978;2024-02-28T09:22:01;99412.59;;;1.90;98.17
77877;BME280;67251;50.844;7.978;2024-02-28T09:24:27;99405.41;;;2.02;96.86
77877;BME280;67251;50.844;7.978;2024-02-28T09:26:53;99412.78;;;1.98;94.73
77877;BME280;67251;50.844;7.978;2024-02-28T09:29:18;99405.28;;;1.73;95.40
77877;BME280;67251;50.844;7.978;2024-02-28T09:31:44;99413.53;;;1.59;95.88
77877;BME280;67251;50.844;7.978;2024-02-28T09:34:09;99406.69;;;1.46;96.35
77877;BME280;67251;50.844;7.978;2024-02-28T09:36:42;99400.28;;;1.70;95.31
77877;BME280;67251;50.844;7.978;2024-02-28T09:39:08;99401.22;;;1.69;94.79
77877;BME280;67251;50.844;7.978;2024-02-28T09:41:33;99399.69;;;1.97;94.45
77877;BME280;67251;50.844;7.978;2024-02-28T09:44:00;99400.31;;;2.10;94.35
77877;BME280;67251;50.844;7.978;2024-02-28T09:46:25;99404.09;;;2.17;92.61
77877;BME280;67251;50.844;7.978;2024-02-28T09:48:52;99400.34;;;2.20;92.94
77877;BME280;67251;50.844;7.978;2024-02-28T09:51:18;99404.53;;;2.22;90.73
77877;BME280;67251;50.844;7.978;2024-02-28T09:53:46;99410.84;;;2.10;89.55
77877;BME280;67251;50.844;7.978;2024-02-28T09:56:12;99423.06;;;2.42;89.60
77877;BME280;67251;50.844;7.978;2024-02-28T09:58:38;99418.22;;;2.56;88.82
77877;BME280;67251;50.844;7.978;2024-02-28T10:01:07;99416.75;;;2.83;86.83
77877;BME280;67251;50.844;7.978;2024-02-28T10:03:35;99412.03;;;3.06;85.22
77877;BME280;67251;50.844;7.978;2024-02-28T10:06:01;99414.78;;;3.04;84.30
77877;BME280;67251;50.844;7.978;2024-02-28T10:08:27;99423.44;;;2.87;85.46
77877;BME280;67251;50.844;7.978;2024-02-28T10:10:55;99419.56;;;2.32;88.08
77877;BME280;67251;50.844;7.978;2024-02-28T10:13:22;99424.28;;;1.97;90.49
77877;BME280;67251;50.844;7.978;2024-02-28T10:15:49;99433.50;;;2.03;91.38
77877;BME280;67251;50.844;7.978;2024-02-28T10:18:14;99428.78;;;2.56;89.44
77877;BME280;67251;50.844;7.978;2024-02-28T10:20:40;99428.72;;;2.97;87.62
77877;BME280;67251;50.844;7.978;2024-02-28T10:23:06;99426.91;;;2.97;85.68
77877;BME280;67251;50.844;7.978;2024-02-28T10:25:33;99424.09;;;3.28;84.43
77877;BME280;67251;50.844;7.978;2024-02-28T10:28:00;99427.72;;;3.46;83.69
77877;BME280;67251;50.844;7.978;2024-02-28T10:30:26;99428.56;;;3.27;84.89
77877;BME280;67251;50.844;7.978;2024-02-28T10:32:51;99425.09;;;3.17;84.90
77877;BME280;67251;50.844;7.978;2024-02-28T10:35:17;99421.19;;;3.41;83.97
77877;BME280;67251;50.844;7.978;2024-02-28T10:37:51;99424.50;;;3.52;83.17
77877;BME280;67251;50.844;7.978;2024-02-28T10:40:16;99420.97;;;3.71;82.11
77877;BME280;67251;50.844;7.978;2024-02-28T10:42:43;99422.00;;;3.51;82.74
77877;BME280;67251;50.844;7.978;2024-02-28T10:45:12;99423.22;;;3.56;82.18
77877;BME280;67251;50.844;7.978;2024-02-28T10:47:38;99419.69;;;3.85;81.38
77877;BME280;67251;50.844;7.978;2024-02-28T10:50:04;99426.25;;;4.18;82.47
77877;BME280;67251;50.844;7.978;2024-02-28T10:52:33;99411.28;;;4.54;81.82
77877;BME280;67251;50.844;7.978;2024-02-28T10:54:59;99409.25;;;4.84;78.94
77877;BME280;67251;50.844;7.978;2024-02-28T10:57:26;99415.88;;;5.16;76.91
77877;BME280;67251;50.844;7.978;2024-02-28T10:59:51;99405.00;;;5.27;75.30
77877;BME280;67251;50.844;7.978;2024-02-28T11:02:17;99411.53;;;5.32;74.36
77877;BME280;67251;50.844;7.978;2024-02-28T11:04:43;99414.78;;;5.44;74.17
77877;BME280;67251;50.844;7.978;2024-02-28T11:07:08;99410.53;;;5.51;74.47
77877;BME280;67251;50.844;7.978;2024-02-28T11:09:34;99407.97;;;5.68;74.76
77877;BME280;67251;50.844;7.978;2024-02-28T11:11:59;99403.72;;;5.75;73.85
77877;BME280;67251;50.844;7.978;2024-02-28T11:14:25;99392.75;;;5.96;72.43
77877;BME280;67251;50.844;7.978;2024-02-28T11:17:04;99398.28;;;5.58;72.16
77877;BME280;67251;50.844;7.978;2024-02-28T11:19:32;99388.25;;;5.70;73.80
77877;BME280;67251;50.844;7.978;2024-02-28T11:21:58;99379.75;;;5.67;72.58
77877;BME280;67251;50.844;7.978;2024-02-28T11:24:29;99378.69;;;6.03;70.68
77877;BME280;67251;50.844;7.978;2024-02-28T11:26:55;99370.13;;;5.92;70.99
77877;BME280;67251;50.844;7.978;2024-02-28T11:29:25;99386.97;;;5.82;72.14
77877;BME280;67251;50.844;7.978;2024-02-28T11:31:51;99384.59;;;5.71;72.00
77877;BME280;67251;50.844;7.978;2024-02-28T11:34:16;99385.38;;;5.63;73.50
77877;BME280;67251;50.844;7.978;2024-02-28T11:36:41;99383.66;;;5.54;72.97
77877;BME280;67251;50.844;7.978;2024-02-28T11:39:07;99393.97;;;5.57;73.59
77877;BME280;67251;50.844;7.978;2024-02-28T11:41:32;99388.59;;;5.49;72.21
77877;BME280;67251;50.844;7.978;2024-02-28T11:43:58;99380.16;;;5.54;71.81
77877;BME280;67251;50.844;7.978;2024-02-28T11:46:24;99378.00;;;5.75;71.83
77877;BME280;67251;50.844;7.978;2024-02-28T11:48:49;99373.34;;;5.77;72.05
77877;BME280;67251;50.844;7.978;2024-02-28T11:51:15;99374.75;;;5.63;72.77
77877;BME280;67251;50.844;7.978;2024-02-28T11:53:40;99370.88;;;5.76;73.98
77877;BME280;67251;50.844;7.978;2024-02-28T11:56:07;99369.13;;;6.27;72.94
77877;BME280;67251;50.844;7.978;2024-02-28T11:58:33;99368.91;;;6.62;69.43
77877;BME280;67251;50.844;7.978;2024-02-28T12:00:58;99375.72;;;6.65;68.68
77877;BME280;67251;50.844;7.978;2024-02-28T12:03:24;99362.44;;;6.81;68.05
77877;BME280;67251;50.844;7.978;2024-02-28T12:05:51;99363.25;;;6.65;67.29
77877;BME280;67251;50.844;7.978;2024-02-28T12:08:17;99360.28;;;6.69;69.77
77877;BME280;67251;50.844;7.978;2024-02-28T12:10:44;99360.94;;;6.71;70.62
77877;BME280;67251;50.844;7.978;2024-02-28T12:13:10;99355.28;;;6.65;68.35
77877;BME280;67251;50.844;7.978;2024-02-28T12:15:36;99355.44;;;6.72;68.74
77877;BME280;67251;50.844;7.978;2024-02-28T12:18:07;99347.16;;;6.91;69.18
77877;BME280;67251;50.844;7.978;2024-02-28T12:20:34;99343.19;;;7.12;68.81
77877;BME280;67251;50.844;7.978;2024-02-28T12:22:59;99346.00;;;7.18;68.41
77877;BME280;67251;50.844;7.978;2024-02-28T12:25:25;99340.84;;;7.17;68.72
77877;BME280;67251;50.844;7.978;2024-02-28T12:27:50;99337.69;;;6.97;66.08
77877;BME280;67251;50.844;7.978;2024-02-28T12:30:15;99340.19;;;7.23;66.85
77877;BME280;67251;50.844;7.978;2024-02-28T12:32:41;99337.69;;;6.97;65.47
77877;BME280;67251;50.844;7.978;2024-02-28T12:35:06;99334.53;;;7.34;65.55
77877;BME280;67251;50.844;7.978;2024-02-28T12:37:32;99325.47;;;7.60;65.00
77877;BME280;67251;50.844;7.978;2024-02-28T12:39:57;99323.97;;;7.65;64.47
77877;BME280;67251;50.844;7.978;2024-02-28T12:42:23;99324.97;;;7.56;63.32
77877;BME280;67251;50.844;7.978;2024-02-28T12:44:48;99314.50;;;7.55;64.20
77877;BME280;67251;50.844;7.978;2024-02-28T12:47:13;99317.03;;;7.40;64.25
77877;BME280;67251;50.844;7.978;2024-02-28T12:49:39;99309.50;;;7.52;64.43
77877;BME280;67251;50.844;7.978;2024-02-28T12:52:04;99308.22;;;7.31;64.06